Time;durP1;ratioP1;P1;durP2;ratioP2;P2;SDS_P1;SDS_P2;PMS_P1;PMS_P2;Temp;Humidity;BMP_temperature;BMP_pressure;BME280_temperature;BME280_humidity;BME280_pressure;Samples;Min_cycle;Max_cycle;Signal;HPM_P1;HPM_P2
2023/04/08 00:01:36;;;;;;;85.00;57.67;;;4.30;99.90;;;;;;5029499;28;20234;-55
2023/04/08 00:04:04;;;;;;;66.53;46.27;;;4.20;99.90;;;;;;5029362;28;20672;-54
2023/04/08 00:06:32;;;;;;;472.37;129.40;;;4.20;99.90;;;;;;5029144;28;20211;-53
2023/04/08 00:09:00;;;;;;;98.77;71.87;;;4.20;99.90;;;;;;5029734;28;20226;-53
2023/04/08 00:11:28;;;;;;;90.10;51.30;;;4.20;99.90;;;;;;5029173;28;20304;-54
2023/04/08 00:13:58;;;;;;;84.33;66.27;;;4.20;99.90;;;;;;5029327;28;20210;-53
2023/04/08 00:16:26;;;;;;;115.93;77.87;;;4.10;99.90;;;;;;5029212;28;20296;-53
2023/04/08 00:18:54;;;;;;;93.63;72.40;;;4.10;99.90;;;;;;5028261;28;20211;-54
2023/04/08 00:21:22;;;;;;;377.17;96.80;;;4.10;99.90;;;;;;5029099;28;20245;-54
2023/04/08 00:23:50;;;;;;;309.00;120.17;;;4.10;99.90;;;;;;5019575;28;20202;-53
2023/04/08 00:26:18;;;;;;;983.53;223.57;;;4.00;99.90;;;;;;5028951;28;20301;-54
2023/04/08 00:28:46;;;;;;;1999.90;380.13;;;4.00;99.90;;;;;;5029099;28;20233;-53
2023/04/08 00:31:16;;;;;;;606.00;164.70;;;4.00;99.90;;;;;;5029090;28;20672;-53
2023/04/08 00:33:44;;;;;;;366.37;86.73;;;4.00;99.90;;;;;;5028656;28;20316;-54
2023/04/08 00:36:12;;;;;;;122.90;66.13;;;3.90;99.90;;;;;;5028506;28;20728;-54
2023/04/08 00:38:40;;;;;;;170.50;61.70;;;3.90;99.90;;;;;;5028792;28;20241;-53
2023/04/08 00:41:08;;;;;;;169.73;60.53;;;3.80;99.90;;;;;;5028661;28;20645;-53
2023/04/08 00:43:36;;;;;;;379.33;144.40;;;3.80;99.90;;;;;;5028711;28;20317;-54
2023/04/08 00:46:05;;;;;;;450.07;94.60;;;3.80;99.90;;;;;;5028863;28;20244;-55
2023/04/08 00:48:35;;;;;;;87.13;59.73;;;3.80;99.90;;;;;;5028228;28;20221;-53
2023/04/08 00:51:03;;;;;;;178.87;84.33;;;3.70;99.90;;;;;;5028436;28;20300;-54
2023/04/08 00:53:31;;;;;;;137.60;86.73;;;3.70;99.90;;;;;;5018259;28;20328;-53
2023/04/08 00:56:00;;;;;;;52.97;38.97;;;3.60;99.90;;;;;;5028415;28;20268;-53
2023/04/08 00:58:29;;;;;;;163.93;97.90;;;3.70;99.90;;;;;;5028939;28;20206;-54
2023/04/08 01:01:06;;;;;;;1999.90;599.43;;;3.60;99.90;;;;;;5028520;28;20264;-54
2023/04/08 01:03:49;;;;;;;102.73;70.00;;;3.60;99.90;;;;;;5028598;28;20231;-55
2023/04/08 01:06:41;;;;;;;99.20;62.03;;;3.70;99.90;;;;;;5028653;28;20221;-54
2023/04/08 01:09:10;;;;;;;309.27;128.57;;;3.60;99.90;;;;;;5028216;28;20304;-55
2023/04/08 01:11:42;;;;;;;229.97;87.80;;;3.60;99.90;;;;;;5028117;28;20248;-53
2023/04/08 01:14:15;;;;;;;100.00;55.30;;;3.50;99.90;;;;;;5028343;28;20252;-54
2023/04/08 01:16:45;;;;;;;260.83;118.20;;;3.50;99.90;;;;;;5027354;28;20206;-54
2023/04/08 01:19:26;;;;;;;127.93;77.20;;;3.40;99.90;;;;;;5028499;28;20225;-53
2023/04/08 01:22:00;;;;;;;196.93;80.10;;;3.40;99.90;;;;;;5028528;28;20262;-53
2023/04/08 01:24:33;;;;;;;148.93;103.50;;;3.40;99.90;;;;;;5028078;28;20262;-54
2023/04/08 01:27:05;;;;;;;225.93;119.73;;;3.40;99.90;;;;;;5026696;28;20297;-55
2023/04/08 01:29:35;;;;;;;1364.47;293.87;;;3.30;99.90;;;;;;5028140;28;20257;-55
2023/04/08 01:32:04;;;;;;;144.17;72.63;;;3.30;99.90;;;;;;5030480;28;20313;-54
2023/04/08 01:34:34;;;;;;;152.40;70.67;;;3.30;99.90;;;;;;5032363;28;20251;-54
2023/04/08 01:37:03;;;;;;;932.33;225.00;;;3.20;99.90;;;;;;5032128;28;20683;-54
2023/04/08 01:39:32;;;;;;;127.27;87.47;;;3.20;99.90;;;;;;5032200;28;20209;-54
2023/04/08 01:42:02;;;;;;;522.13;130.40;;;3.20;99.90;;;;;;5031980;28;20232;-54
2023/04/08 01:44:32;;;;;;;100.07;75.37;;;3.20;99.90;;;;;;5032397;28;20613;-53
2023/04/08 01:47:01;;;;;;;67.13;48.93;;;3.20;99.90;;;;;;5032246;28;20209;-54
2023/04/08 01:49:30;;;;;;;142.47;80.23;;;3.20;99.90;;;;;;5031828;28;20777;-54
2023/04/08 01:52:00;;;;;;;80.90;63.40;;;3.20;99.90;;;;;;5032096;28;20268;-54
2023/04/08 01:54:28;;;;;;;55.57;48.07;;;3.20;99.90;;;;;;5032400;28;20201;-54
2023/04/08 01:56:58;;;;;;;93.07;73.63;;;3.20;99.90;;;;;;5032077;28;20293;-53
2023/04/08 01:59:31;;;;;;;84.33;51.00;;;3.20;99.90;;;;;;5032016;28;20817;-53
2023/04/08 02:02:00;;;;;;;69.07;51.53;;;3.20;99.90;;;;;;5031300;28;20760;-53
2023/04/08 02:04:28;;;;;;;92.83;55.33;;;3.30;99.90;;;;;;5018614;28;20246;-53
2023/04/08 02:06:57;;;;;;;106.37;59.80;;;3.30;99.90;;;;;;5025458;28;20214;-54
2023/04/08 02:09:26;;;;;;;113.90;102.60;;;3.20;99.90;;;;;;5030791;28;20247;-53
2023/04/08 02:11:55;;;;;;;141.13;96.97;;;3.30;99.90;;;;;;5030104;28;20271;-53
2023/04/08 02:14:25;;;;;;;148.17;100.20;;;3.30;99.90;;;;;;5031234;28;20759;-53
2023/04/08 02:17:01;;;;;;;81.23;57.23;;;3.40;99.90;;;;;;5032007;28;20241;-54
2023/04/08 02:19:34;;;;;;;645.90;201.03;;;3.40;99.90;;;;;;5028285;28;20596;-54
2023/04/08 02:22:07;;;;;;;101.93;80.60;;;3.40;99.90;;;;;;5031618;28;20230;-53
2023/04/08 02:24:37;;;;;;;487.53;201.33;;;3.40;99.90;;;;;;5020963;28;20224;-52
2023/04/08 02:27:05;;;;;;;627.80;198.53;;;3.50;99.90;;;;;;5031584;28;20205;-53
2023/04/08 02:29:36;;;;;;;48.97;43.97;;;3.50;99.90;;;;;;5031263;28;20321;-53
2023/04/08 02:32:06;;;;;;;1037.20;256.40;;;3.50;99.90;;;;;;5031345;28;20313;-54
2023/04/08 02:34:35;;;;;;;164.53;87.10;;;3.40;99.90;;;;;;5031349;28;20234;-54
2023/04/08 02:37:03;;;;;;;118.77;86.63;;;3.40;99.90;;;;;;5026161;28;20208;-54
2023/04/08 02:39:32;;;;;;;137.17;99.00;;;3.30;99.90;;;;;;5031800;28;20814;-54
2023/04/08 02:42:00;;;;;;;1066.73;252.37;;;3.30;99.90;;;;;;5030223;28;20224;-54
2023/04/08 02:44:28;;;;;;;90.60;72.63;;;3.40;99.90;;;;;;5031793;28;20299;-54
2023/04/08 02:46:56;;;;;;;132.83;92.77;;;3.40;99.90;;;;;;5031544;28;20256;-53
2023/04/08 02:49:26;;;;;;;141.53;67.87;;;3.40;99.90;;;;;;5031049;28;20569;-53
2023/04/08 02:51:54;;;;;;;301.33;106.77;;;3.40;99.90;;;;;;5031049;28;20269;-54
2023/04/08 02:54:22;;;;;;;85.40;56.20;;;3.40;99.90;;;;;;5022384;28;20321;-54
2023/04/08 02:56:50;;;;;;;210.53;89.33;;;3.50;99.90;;;;;;5031084;28;20296;-54
2023/04/08 02:59:17;;;;;;;140.50;100.33;;;3.50;99.90;;;;;;5031260;28;20206;-54
2023/04/08 03:01:45;;;;;;;59.80;53.00;;;3.50;99.90;;;;;;5031081;28;20262;-53
2023/04/08 03:04:13;;;;;;;97.67;70.23;;;3.60;99.90;;;;;;5030815;28;20682;-53
2023/04/08 03:06:43;;;;;;;81.23;52.80;;;3.60;99.90;;;;;;5030683;28;20241;-53
2023/04/08 03:09:11;;;;;;;96.80;61.53;;;3.60;99.90;;;;;;5030689;28;20662;-53
2023/04/08 03:11:39;;;;;;;76.90;56.23;;;3.60;99.90;;;;;;5030551;28;20237;-53
2023/04/08 03:14:07;;;;;;;55.33;49.60;;;3.70;99.90;;;;;;5025375;28;20244;-54
2023/04/08 03:16:35;;;;;;;52.97;39.43;;;3.70;99.90;;;;;;5030705;28;20213;-53
2023/04/08 03:19:03;;;;;;;60.17;40.67;;;3.80;99.90;;;;;;5030190;28;20213;-55
2023/04/08 03:21:31;;;;;;;56.67;33.93;;;3.90;99.90;;;;;;5030637;28;20249;-54
2023/04/08 03:24:01;;;;;;;88.73;74.93;;;3.90;99.90;;;;;;5030299;28;20301;-54
2023/04/08 03:26:29;;;;;;;169.67;90.23;;;4.00;99.90;;;;;;5030037;28;20252;-55
2023/04/08 03:28:57;;;;;;;77.87;56.13;;;4.00;99.90;;;;;;5030496;28;20634;-55
2023/04/08 03:31:25;;;;;;;67.07;43.80;;;4.10;99.90;;;;;;5026441;28;20271;-53
2023/04/08 03:33:53;;;;;;;79.43;51.60;;;4.10;99.90;;;;;;5028609;28;20214;-54
2023/04/08 03:36:21;;;;;;;52.23;34.30;;;4.20;99.90;;;;;;5019555;28;20309;-54
2023/04/08 03:38:49;;;;;;;95.07;59.73;;;4.20;99.90;;;;;;5029552;28;20237;-54
2023/04/08 03:41:19;;;;;;;58.30;41.33;;;4.20;99.90;;;;;;5029949;28;20210;-54
2023/04/08 03:43:47;;;;;;;110.40;70.67;;;4.30;99.90;;;;;;5030151;28;20280;-54
2023/04/08 03:46:15;;;;;;;89.63;75.33;;;4.20;99.90;;;;;;5030178;28;20317;-54
2023/04/08 03:48:43;;;;;;;101.10;48.47;;;4.20;99.90;;;;;;5029671;28;20222;-55
2023/04/08 03:51:11;;;;;;;75.73;43.37;;;4.20;99.90;;;;;;5030080;28;20325;-54
2023/04/08 03:53:39;;;;;;;54.00;41.33;;;4.30;99.90;;;;;;5029432;28;20322;-55
2023/04/08 03:56:08;;;;;;;51.53;34.33;;;4.30;99.90;;;;;;5029255;28;20289;-54
2023/04/08 03:58:37;;;;;;;69.30;40.27;;;4.40;99.90;;;;;;5029864;28;20221;-54
2023/04/08 04:01:05;;;;;;;95.90;56.97;;;4.50;99.90;;;;;;5029763;28;20234;-55
2023/04/08 04:03:33;;;;;;;83.83;50.10;;;4.50;99.90;;;;;;5029661;28;20333;-54
2023/04/08 04:06:02;;;;;;;49.63;31.10;;;4.40;99.90;;;;;;5029352;28;20582;-53
2023/04/08 04:08:29;;;;;;;67.23;42.13;;;4.50;99.90;;;;;;5029586;28;20313;-53
2023/04/08 04:10:59;;;;;;;90.07;58.70;;;4.50;99.90;;;;;;5029244;28;20239;-54
2023/04/08 04:13:27;;;;;;;67.50;47.70;;;4.50;99.90;;;;;;5021416;28;20253;-54
2023/04/08 04:15:56;;;;;;;66.20;49.53;;;4.50;99.90;;;;;;5027712;28;20214;-53
2023/04/08 04:18:24;;;;;;;77.27;45.90;;;4.60;99.90;;;;;;5029050;28;20206;-54
2023/04/08 04:20:52;;;;;;;78.50;54.70;;;4.60;99.90;;;;;;5029474;28;20208;-55
2023/04/08 04:23:23;;;;;;;66.97;51.73;;;4.60;99.90;;;;;;5029394;28;20237;-55
2023/04/08 04:25:51;;;;;;;74.93;50.30;;;4.70;99.90;;;;;;5026627;28;20207;-54
2023/04/08 04:28:19;;;;;;;83.03;61.07;;;4.70;99.90;;;;;;5028918;28;20249;-54
2023/04/08 04:30:47;;;;;;;37.93;34.00;;;4.80;99.90;;;;;;5028991;28;20765;-54
2023/04/08 04:33:16;;;;;;;66.63;45.40;;;4.80;99.90;;;;;;5028517;28;20230;-54
2023/04/08 04:35:44;;;;;;;41.77;31.20;;;4.80;99.90;;;;;;5028999;28;20250;-53
2023/04/08 04:38:12;;;;;;;55.57;42.10;;;4.80;99.90;;;;;;5028920;28;20221;-54
2023/04/08 04:40:40;;;;;;;126.80;55.30;;;4.80;99.90;;;;;;5028716;28;20888;-54
2023/04/08 04:43:08;;;;;;;33.60;21.37;;;4.80;99.90;;;;;;5027867;28;20230;-54
2023/04/08 04:45:36;;;;;;;28.80;25.57;;;4.80;99.90;;;;;;5029139;28;20214;-53
2023/04/08 04:48:04;;;;;;;50.20;31.57;;;4.90;99.90;;;;;;5028924;28;20652;-54
2023/04/08 04:50:34;;;;;;;143.03;63.67;;;4.90;99.90;;;;;;5021149;28;20226;-53
2023/04/08 04:53:02;;;;;;;62.67;43.87;;;5.00;99.90;;;;;;5028820;28;20226;-54
2023/04/08 04:55:30;;;;;;;61.40;48.03;;;5.00;99.90;;;;;;5028631;28;20203;-55
2023/04/08 04:57:58;;;;;;;54.97;36.67;;;5.00;99.90;;;;;;5027299;28;20214;-54
2023/04/08 05:00:26;;;;;;;43.03;32.43;;;5.00;99.90;;;;;;5025186;28;20216;-55
2023/04/08 05:02:54;;;;;;;46.03;36.57;;;5.00;99.90;;;;;;5027652;28;20312;-55
2023/04/08 05:05:22;;;;;;;60.40;38.83;;;5.00;99.90;;;;;;5027961;28;20646;-54
2023/04/08 05:07:52;;;;;;;45.27;31.60;;;5.00;99.90;;;;;;5028417;28;20291;-54
2023/04/08 05:10:20;;;;;;;37.10;24.67;;;5.00;99.90;;;;;;5028421;28;20258;-54
2023/04/08 05:12:48;;;;;;;59.93;41.97;;;5.10;99.90;;;;;;5028481;28;20319;-53
2023/04/08 05:15:16;;;;;;;86.87;45.70;;;5.10;99.90;;;;;;5024801;28;20233;-54
2023/04/08 05:17:44;;;;;;;95.87;60.33;;;5.20;99.90;;;;;;5028511;28;20304;-53
2023/04/08 05:20:13;;;;;;;39.20;25.60;;;5.10;99.90;;;;;;5027622;28;20206;-53
2023/04/08 05:22:44;;;;;;;47.23;32.83;;;5.20;99.90;;;;;;5036102;28;20605;-53
2023/04/08 05:25:13;;;;;;;94.67;53.23;;;5.20;99.90;;;;;;5038748;28;20633;-53
2023/04/08 05:27:41;;;;;;;73.60;43.50;;;5.30;99.90;;;;;;5028639;28;20220;-54
2023/04/08 05:30:10;;;;;;;839.70;216.00;;;5.40;99.90;;;;;;5028507;28;20240;-52
2023/04/08 05:32:38;;;;;;;64.63;49.40;;;5.50;99.90;;;;;;5028046;28;20704;-52
2023/04/08 05:35:08;;;;;;;124.50;71.37;;;5.50;99.90;;;;;;5028627;28;20237;-54
2023/04/08 05:37:36;;;;;;;36.97;26.63;;;5.50;99.90;;;;;;5027993;28;20212;-54
2023/04/08 05:40:05;;;;;;;59.40;37.37;;;5.60;99.90;;;;;;5020313;28;20293;-54
2023/04/08 05:42:34;;;;;;;130.03;95.83;;;5.60;99.90;;;;;;5023484;28;20264;-53
2023/04/08 05:45:02;;;;;;;197.40;92.10;;;5.70;99.90;;;;;;5021255;28;20244;-54
2023/04/08 05:47:30;;;;;;;77.97;60.80;;;5.80;99.90;;;;;;5027580;28;20242;-54
2023/04/08 05:49:58;;;;;;;80.60;58.83;;;5.80;99.90;;;;;;5027944;28;20683;-54
2023/04/08 05:52:26;;;;;;;1946.20;371.40;;;5.90;99.90;;;;;;5020947;28;20262;-52
2023/04/08 05:54:54;;;;;;;1300.97;346.33;;;5.90;99.90;;;;;;5026981;28;20292;-53
2023/04/08 05:57:22;;;;;;;484.13;226.57;;;5.90;99.90;;;;;;5028197;28;20304;-54
2023/04/08 05:59:52;;;;;;;1999.90;562.77;;;5.90;99.90;;;;;;5028238;28;20212;-53
2023/04/08 06:02:20;;;;;;;1999.90;756.50;;;6.00;99.90;;;;;;5028044;28;20313;-54
2023/04/08 06:04:48;;;;;;;199.37;159.13;;;6.10;99.90;;;;;;5027854;28;20210;-54
2023/04/08 06:07:16;;;;;;;1851.10;526.53;;;6.10;99.90;;;;;;5028086;28;20751;-53
2023/04/08 06:09:44;;;;;;;1999.90;638.30;;;6.20;99.90;;;;;;5016631;28;20207;-53
2023/04/08 06:12:12;;;;;;;249.07;156.30;;;6.20;99.90;;;;;;5027833;28;20772;-54
2023/04/08 06:14:40;;;;;;;1999.90;726.53;;;6.30;99.90;;;;;;5027529;28;20206;-54
2023/04/08 06:17:09;;;;;;;727.73;341.87;;;6.30;99.90;;;;;;5025891;28;20298;-54
2023/04/08 06:19:37;;;;;;;391.80;239.80;;;6.20;99.90;;;;;;5023664;28;20973;-54
2023/04/08 06:22:05;;;;;;;1015.67;301.20;;;6.30;99.90;;;;;;5031478;28;20333;-54
2023/04/08 06:24:33;;;;;;;920.83;320.30;;;6.30;99.90;;;;;;5031757;28;20245;-53
2023/04/08 06:27:01;;;;;;;921.47;353.80;;;6.30;99.90;;;;;;5031130;28;20208;-54
2023/04/08 06:29:30;;;;;;;231.10;152.90;;;6.30;99.90;;;;;;5030848;28;20215;-54
2023/04/08 06:31:58;;;;;;;1333.13;435.83;;;6.30;99.90;;;;;;5031528;28;20226;-53
2023/04/08 06:34:27;;;;;;;400.40;212.10;;;6.30;99.90;;;;;;5031602;28;20210;-54
2023/04/08 06:36:55;;;;;;;448.90;242.13;;;6.30;99.90;;;;;;5031638;28;20219;-54
2023/04/08 06:39:23;;;;;;;1190.17;361.97;;;6.40;99.90;;;;;;5031364;28;20239;-54
2023/04/08 06:41:51;;;;;;;1999.90;702.07;;;6.50;99.90;;;;;;5031211;28;20348;-54
2023/04/08 06:44:19;;;;;;;928.27;330.00;;;6.50;99.90;;;;;;5031037;28;20690;-53
2023/04/08 06:46:47;;;;;;;1608.80;376.00;;;6.50;99.90;;;;;;5023296;28;20240;-54
2023/04/08 06:49:15;;;;;;;1221.80;354.37;;;6.40;99.90;;;;;;5030040;28;20298;-54
2023/04/08 06:51:46;;;;;;;317.53;186.13;;;6.50;99.90;;;;;;5030207;28;20341;-55
2023/04/08 06:54:14;;;;;;;221.17;145.57;;;6.50;99.90;;;;;;5030651;28;20305;-53
2023/04/08 06:56:42;;;;;;;1203.63;439.57;;;6.50;99.90;;;;;;5030985;28;20210;-54
2023/04/08 06:59:10;;;;;;;309.07;160.30;;;6.60;99.90;;;;;;5030806;28;20289;-54
2023/04/08 07:01:38;;;;;;;1999.90;660.23;;;6.60;99.90;;;;;;5030767;28;20688;-54
2023/04/08 07:04:06;;;;;;;1999.90;658.63;;;6.70;99.90;;;;;;5030970;28;20214;-54
2023/04/08 07:06:34;;;;;;;76.10;65.10;;;6.80;99.90;;;;;;5030580;28;20210;-53
2023/04/08 07:09:04;;;;;;;1803.37;462.07;;;6.80;99.90;;;;;;5023533;28;20241;-53
2023/04/08 07:11:32;;;;;;;115.83;103.80;;;6.80;99.90;;;;;;5029408;28;20273;-54
2023/04/08 07:14:00;;;;;;;1620.30;407.37;;;6.90;99.90;;;;;;5030642;28;20214;-54
2023/04/08 07:16:28;;;;;;;1975.30;497.80;;;6.90;99.90;;;;;;5030888;28;20206;-54
2023/04/08 07:18:56;;;;;;;1033.90;307.60;;;7.00;99.90;;;;;;5030431;28;20206;-54
2023/04/08 07:21:25;;;;;;;1737.07;373.40;;;7.00;99.90;;;;;;5030872;28;20302;-52
2023/04/08 07:23:52;;;;;;;1999.90;792.33;;;7.00;99.90;;;;;;5027113;28;20203;-53
2023/04/08 07:26:22;;;;;;;132.77;108.23;;;6.90;99.90;;;;;;5024660;28;20237;-55
2023/04/08 07:28:50;;;;;;;129.53;82.13;;;6.90;99.90;;;;;;5030089;28;20245;-53
2023/04/08 07:31:19;;;;;;;60.73;54.07;;;7.00;99.90;;;;;;5030665;28;20222;-54
2023/04/08 07:33:47;;;;;;;1336.63;379.67;;;7.00;99.90;;;;;;5030301;28;20234;-54
2023/04/08 07:36:17;;;;;;;1999.90;645.20;;;7.00;99.90;;;;;;5030366;28;20610;-53
2023/04/08 07:38:45;;;;;;;554.80;192.60;;;7.00;99.90;;;;;;5030558;28;20216;-53
2023/04/08 07:41:13;;;;;;;566.10;189.17;;;7.00;99.90;;;;;;5026875;28;20301;-53
2023/04/08 07:43:42;;;;;;;836.80;272.13;;;7.00;99.90;;;;;;5030328;28;20280;-54
2023/04/08 07:46:10;;;;;;;1999.90;505.57;;;7.00;99.90;;;;;;5030317;28;20352;-53
2023/04/08 07:48:39;;;;;;;1695.83;380.80;;;7.00;99.90;;;;;;5029773;28;20206;-54
2023/04/08 07:51:08;;;;;;;101.03;57.30;;;7.00;99.90;;;;;;5029982;28;20844;-53
2023/04/08 07:53:39;;;;;;;382.10;123.60;;;7.10;99.90;;;;;;5022318;28;20223;-55
2023/04/08 07:56:12;;;;;;;1999.90;700.40;;;7.10;99.90;;;;;;5027448;28;20233;-54
2023/04/08 07:58:42;;;;;;;63.93;49.40;;;7.20;99.90;;;;;;5029759;28;20216;-52
2023/04/08 08:01:18;;;;;;;63.83;55.40;;;7.20;99.90;;;;;;5028177;28;20219;-53
2023/04/08 08:03:47;;;;;;;697.50;251.87;;;7.10;99.90;;;;;;5020156;28;20226;-55
2023/04/08 08:06:16;;;;;;;40.17;34.67;;;7.20;99.90;;;;;;5029542;28;20206;-53
2023/04/08 08:08:44;;;;;;;140.77;118.63;;;7.30;99.90;;;;;;5029888;28;20313;-53
2023/04/08 08:11:12;;;;;;;623.23;199.27;;;7.30;99.90;;;;;;5029481;28;20241;-53
2023/04/08 08:13:42;;;;;;;741.40;161.13;;;7.30;99.90;;;;;;5020775;28;20312;-54
2023/04/08 08:16:10;;;;;;;571.43;182.17;;;7.40;99.90;;;;;;5025765;28;20210;-53
2023/04/08 08:18:39;;;;;;;714.67;177.63;;;7.30;99.90;;;;;;5029228;28;20289;-53
2023/04/08 08:21:08;;;;;;;537.83;167.90;;;7.20;99.90;;;;;;5029142;28;20214;-55
2023/04/08 08:23:36;;;;;;;209.67;66.90;;;7.20;99.90;;;;;;5029356;28;20233;-52
2023/04/08 08:26:06;;;;;;;83.90;46.40;;;7.30;99.90;;;;;;5029069;28;20242;-54
2023/04/08 08:28:34;;;;;;;1087.47;223.97;;;7.30;99.90;;;;;;5029105;28;20583;-54
2023/04/08 08:31:04;;;;;;;1292.07;237.00;;;7.30;99.90;;;;;;5029209;28;20210;-55
2023/04/08 08:33:33;;;;;;;111.47;45.43;;;7.40;99.90;;;;;;5028692;28;20356;-54
2023/04/08 08:36:03;;;;;;;1272.27;258.70;;;7.40;99.90;;;;;;5021273;28;20297;-54
2023/04/08 08:38:31;;;;;;;114.07;38.97;;;7.40;99.90;;;;;;5028084;28;20672;-54
2023/04/08 08:41:00;;;;;;;185.50;67.33;;;7.40;99.90;;;;;;5021165;28;20257;-54
2023/04/08 08:43:32;;;;;;;260.47;87.90;;;7.50;99.90;;;;;;5028855;28;20273;-53
2023/04/08 08:46:00;;;;;;;1999.90;493.25;;;7.60;99.90;;;;;;5028013;28;20440;-54
2023/04/08 08:48:31;;;;;;;616.57;187.33;;;7.70;99.90;;;;;;5028908;28;20301;-54
2023/04/08 08:50:59;;;;;;;1999.90;512.23;;;7.70;99.90;;;;;;5028387;28;20619;-55
2023/04/08 08:53:30;;;;;;;1999.90;650.27;;;7.70;99.90;;;;;;5028517;28;20605;-54
2023/04/08 08:56:02;;;;;;;1183.57;253.20;;;7.60;99.90;;;;;;5028848;28;20209;-53
2023/04/08 08:58:33;;;;;;;1991.10;408.60;;;7.70;99.90;;;;;;5028199;28;20218;-55
2023/04/08 09:01:01;;;;;;;1923.83;342.87;;;7.80;99.90;;;;;;5028732;28;20210;-55
2023/04/08 09:03:30;;;;;;;145.87;55.93;;;7.80;99.90;;;;;;5028428;28;20330;-55
2023/04/08 09:06:00;;;;;;;532.30;152.13;;;7.90;99.90;;;;;;5028933;28;20264;-54
2023/04/08 09:08:30;;;;;;;728.77;154.27;;;8.00;99.90;;;;;;5027930;28;20206;-53
2023/04/08 09:11:12;;;;;;;204.10;87.80;;;8.10;99.90;;;;;;5028364;28;20293;-54
2023/04/08 09:13:41;;;;;;;72.53;46.93;;;8.20;99.90;;;;;;5028336;28;20266;-54
2023/04/08 09:16:10;;;;;;;1999.90;570.63;;;8.30;99.90;;;;;;5028195;28;20206;-54
2023/04/08 09:18:43;;;;;;;649.63;136.50;;;8.30;99.90;;;;;;5027797;28;20206;-54
2023/04/08 09:21:12;;;;;;;1999.90;789.27;;;8.30;99.90;;;;;;5028220;28;20202;-54
2023/04/08 09:23:42;;;;;;;508.97;139.53;;;8.40;99.90;;;;;;5028383;28;20249;-53
2023/04/08 09:26:11;;;;;;;682.03;147.97;;;8.30;99.90;;;;;;5028352;28;20210;-54
2023/04/08 09:28:41;;;;;;;673.00;149.20;;;8.20;99.90;;;;;;5028444;28;20321;-55
2023/04/08 09:31:20;;;;;;;1999.90;655.60;;;8.20;99.90;;;;;;5028128;28;20199;-55
2023/04/08 09:33:51;;;;;;;167.03;79.80;;;8.20;99.90;;;;;;5027841;28;20623;-54
2023/04/08 09:36:19;;;;;;;1367.80;246.17;;;8.30;99.90;;;;;;5028135;28;20237;-54
2023/04/08 09:38:48;;;;;;;1999.90;629.40;;;8.60;99.90;;;;;;5028053;28;20293;-54
2023/04/08 09:41:17;;;;;;;1139.60;240.57;;;8.70;99.90;;;;;;5027889;28;20242;-54
2023/04/08 09:43:49;;;;;;;1999.90;652.27;;;8.80;99.90;;;;;;5027935;28;20261;-53
2023/04/08 09:46:19;;;;;;;418.97;91.43;;;9.00;99.90;;;;;;5027887;28;20217;-54
2023/04/08 09:48:58;;;;;;;1973.60;371.90;;;9.00;99.90;;;;;;5028512;28;20213;-55
2023/04/08 09:51:32;;;;;;;1164.13;248.57;;;9.00;99.90;;;;;;5028379;28;20245;-54
2023/04/08 09:54:03;;;;;;;59.93;44.43;;;9.00;99.90;;;;;;5031989;28;20268;-53
2023/04/08 09:56:38;;;;;;;1999.90;370.63;;;9.00;99.90;;;;;;5031764;28;20738;-54
2023/04/08 09:59:11;;;;;;;1231.73;258.47;;;9.20;99.90;;;;;;5031195;28;20194;-52
2023/04/08 10:01:44;;;;;;;1999.90;997.20;;;9.20;99.90;;;;;;5026897;28;20746;-54
2023/04/08 10:04:16;;;;;;;1942.10;364.57;;;9.40;99.90;;;;;;5032202;28;20203;-54
2023/04/08 10:06:46;;;;;;;1271.73;265.83;;;9.30;99.90;;;;;;5031443;28;20214;-54
2023/04/08 10:09:14;;;;;;;1999.90;400.37;;;9.40;99.90;;;;;;5031601;28;20206;-54
2023/04/08 10:11:42;;;;;;;1999.90;501.13;;;9.40;99.90;;;;;;5031453;28;20245;-55
2023/04/08 10:14:10;;;;;;;1999.90;571.80;;;9.30;99.90;;;;;;5032045;28;20257;-54
2023/04/08 10:16:38;;;;;;;953.13;173.13;;;9.30;99.90;;;;;;5029412;28;20245;-55
2023/04/08 10:19:40;;;;;;;1999.90;464.87;;;9.40;99.90;;;;;;5029702;28;20210;-55
2023/04/08 10:22:48;;;;;;;1823.20;350.90;;;9.50;99.90;;;;;;5031551;28;20241;-54
2023/04/08 10:25:30;;;;;;;576.17;157.53;;;9.40;99.90;;;;;;5013863;28;20249;-53
2023/04/08 10:27:58;;;;;;;1999.90;464.90;;;9.40;99.90;;;;;;5019957;28;20214;-55
2023/04/08 10:30:43;;;;;;;1999.90;482.93;;;9.30;99.90;;;;;;5031038;28;20288;-55
2023/04/08 10:33:13;;;;;;;1469.40;338.47;;;9.30;99.90;;;;;;5030871;28;20812;-54
2023/04/08 10:35:45;;;;;;;1999.90;605.40;;;9.30;99.90;;;;;;5030865;28;20313;-54
2023/04/08 10:38:14;;;;;;;1230.30;284.37;;;9.50;99.90;;;;;;5031485;28;20214;-54
2023/04/08 10:40:43;;;;;;;1982.77;385.63;;;9.70;99.90;;;;;;5030938;28;20292;-55
2023/04/08 10:43:12;;;;;;;1316.83;273.97;;;9.80;99.90;;;;;;5031156;28;20257;-53
2023/04/08 10:45:41;;;;;;;1999.90;463.03;;;9.80;99.90;;;;;;5031177;28;20289;-53
2023/04/08 10:48:14;;;;;;;1999.90;714.57;;;9.80;99.90;;;;;;5030390;28;20210;-54
2023/04/08 10:50:44;;;;;;;1999.90;846.87;;;9.80;99.90;;;;;;5030812;28;20206;-54
2023/04/08 10:53:12;;;;;;;1999.90;686.50;;;9.80;99.90;;;;;;5024236;28;20310;-53
2023/04/08 10:55:40;;;;;;;1999.90;398.47;;;9.80;99.90;;;;;;5031037;28;20322;-54
2023/04/08 10:58:08;;;;;;;1999.90;519.93;;;9.90;99.90;;;;;;5030232;28;20242;-54
2023/04/08 11:00:38;;;;;;;1225.03;290.40;;;9.90;99.90;;;;;;5030529;28;20313;-54
2023/04/08 11:03:08;;;;;;;1601.90;321.20;;;10.00;99.90;;;;;;5029644;28;20269;-54
2023/04/08 11:05:37;;;;;;;1999.90;416.20;;;10.00;99.90;;;;;;5030593;28;20608;-55
2023/04/08 11:08:07;;;;;;;1999.90;446.47;;;10.10;99.90;;;;;;5031052;28;20242;-54
2023/04/08 11:10:37;;;;;;;1999.90;483.37;;;10.30;99.90;;;;;;5030475;28;20285;-54
2023/04/08 11:13:08;;;;;;;1999.90;718.67;;;10.60;99.90;;;;;;5030209;28;20230;-55
2023/04/08 11:15:37;;;;;;;1999.90;589.83;;;10.60;99.90;;;;;;5030309;28;20700;-54
2023/04/08 11:18:06;;;;;;;1999.90;562.33;;;10.70;99.90;;;;;;5030184;28;20206;-54
2023/04/08 11:20:36;;;;;;;1999.90;619.00;;;10.80;99.90;;;;;;5030095;28;20206;-54
2023/04/08 11:23:04;;;;;;;1999.90;667.90;;;10.90;99.90;;;;;;5026123;28;20226;-54
2023/04/08 11:25:33;;;;;;;1999.90;818.40;;;10.90;99.90;;;;;;5030003;28;20741;-55
2023/04/08 11:28:02;;;;;;;1999.90;705.37;;;10.80;99.90;;;;;;5030102;28;20207;-54
2023/04/08 11:30:31;;;;;;;1999.90;722.97;;;10.70;99.90;;;;;;5030144;28;20242;-53
2023/04/08 11:32:59;;;;;;;1999.90;673.30;;;10.60;99.90;;;;;;5029465;28;20226;-54
2023/04/08 11:35:29;;;;;;;1854.37;383.90;;;10.60;99.90;;;;;;5017689;28;20235;-54
2023/04/08 11:37:58;;;;;;;1999.90;661.57;;;10.70;99.90;;;;;;5016213;28;20206;-54
2023/04/08 11:40:26;;;;;;;1999.90;616.30;;;10.70;99.90;;;;;;5030294;28;20214;-54
2023/04/08 11:42:55;;;;;;;1999.90;850.70;;;10.80;99.90;;;;;;5029087;28;20305;-54
2023/04/08 11:45:23;;;;;;;1999.90;538.73;;;11.00;99.90;;;;;;5030301;28;20640;-55
2023/04/08 11:47:51;;;;;;;1999.90;432.40;;;10.90;99.90;;;;;;5021220;28;20293;-54
2023/04/08 11:50:24;;;;;;;1999.90;592.10;;;10.80;99.90;;;;;;5015795;28;20215;-54
2023/04/08 11:52:52;;;;;;;1999.90;852.80;;;10.80;99.90;;;;;;5030166;28;20241;-54
2023/04/08 11:55:26;;;;;;;1999.90;881.97;;;10.80;99.90;;;;;;5029387;28;20226;-54
2023/04/08 11:57:57;;;;;;;1617.87;324.17;;;10.80;99.90;;;;;;5029801;28;20198;-53
2023/04/08 12:00:26;;;;;;;1999.90;486.50;;;10.70;99.90;;;;;;5029480;28;20210;-55
2023/04/08 12:02:54;;;;;;;1999.90;677.30;;;10.60;99.90;;;;;;5028843;28;20272;-54
2023/04/08 12:05:22;;;;;;;1972.77;388.40;;;10.60;99.90;;;;;;5029272;28;20202;-53
2023/04/08 12:07:50;;;;;;;1991.67;407.27;;;10.60;99.90;;;;;;5029832;28;20226;-53
2023/04/08 12:10:19;;;;;;;1999.90;398.37;;;10.60;99.90;;;;;;5028815;28;20696;-53
2023/04/08 12:12:47;;;;;;;1999.90;535.73;;;10.60;99.90;;;;;;5018737;28;20234;-53
2023/04/08 12:15:17;;;;;;;1324.97;272.43;;;10.60;99.90;;;;;;5026536;28;20323;-54
2023/04/08 12:17:45;;;;;;;1999.90;578.07;;;10.60;99.90;;;;;;5026903;28;20211;-55
2023/04/08 12:20:14;;;;;;;1999.90;999.90;;;10.70;99.90;;;;;;5018966;28;20207;-54
2023/04/08 12:22:42;;;;;;;1999.90;574.60;;;10.90;99.90;;;;;;5011694;28;20258;-54
2023/04/08 12:25:10;;;;;;;1999.90;555.03;;;10.70;99.90;;;;;;5028580;28;20215;-54
2023/04/08 12:27:38;;;;;;;1999.90;454.43;;;10.60;99.90;;;;;;5028557;28;20632;-54
2023/04/08 12:30:08;;;;;;;1999.90;644.00;;;10.70;99.90;;;;;;5028286;28;20202;-54
2023/04/08 12:32:37;;;;;;;1999.90;461.40;;;10.90;99.90;;;;;;5028420;28;20269;-55